Airfield :
LOGIN :

Register | Disclaimer

   EN    FR    IT 

 










Legend :    VFR   Marginal VFR   IFR   Intensive IFR   Very Intensive IFR
Visi :
Ceiling :
>= 8 km
>= 3000ft
5 to 8 km
1000 to 3000 ft
1500m to 5 km
500 to 1000 ft
800 to 1500m
200 to 500 ft
< 800m
< 200 ft
Symbols :   Thunderstorms  Fog  Heavy snow  Heavy precipitations  Wind > 20 kt
SIGMETs :     Misc.  Thunderstorms  Icing  Turbulence  Mountain Waves  Volcanic Ashes






- Airport Elevation : 195 ft


LFMY - Salon de Provence

CURRENT METAR :
  • 210030Z AUTO VRB01KT 9000 NSC 01/00 Q1026

EXPIRED METARs :
  • 210000Z AUTO 00000KT CAVOK 02/01 Q1026
  • 202330Z AUTO 00000KT 9000 NSC 01/M01 Q1026
  • 202300Z AUTO 22001KT CAVOK 03/02 Q1026
  • 202230Z AUTO 00000KT CAVOK 03/02 Q1027
  • 202200Z AUTO VRB02KT CAVOK 03/02 Q1026

TAF TAF LFMY
Valid from the 20 at 15:00 until the 21 at 15:00 UTC


201400Z 2015/2115 20008KT CAVOK
FM201800 VRB02KT CAVOK
BECMG 2100/2103 33010G20KT
BECMG 2106/2109 34020G33KT



MET'MAP, your aeronautical weather chart ! - Copyright ORBIFLY December 2007 - Disclaimer

ORBIFLY MET'MAP TEAM :

Programming & Development : Alexandra Zaïnal
Concept & original design : Baudouin d'Aumeries
Assistance for programming : Marc-Olivier Méhu
Technical & hardware support : Manuel Goepfert

Contact : metmap@orbifly.com




SOURCES & CREDITS :

   NOAA